sensor_id;sensor_type;location;lat;lon;timestamp;P1;durP1;ratioP1;P2;durP2;ratioP2
3423;SDS011;72707;50.120;8.500;2023-10-19T00:00:45;14.30;;;8.53;;
3423;SDS011;72707;50.120;8.500;2023-10-19T00:03:13;12.17;;;7.43;;
3423;SDS011;72707;50.120;8.500;2023-10-19T00:05:39;10.53;;;7.57;;
3423;SDS011;72707;50.120;8.500;2023-10-19T00:08:06;13.87;;;8.23;;
3423;SDS011;72707;50.120;8.500;2023-10-19T00:10:38;12.77;;;8.40;;
3423;SDS011;72707;50.120;8.500;2023-10-19T00:13:05;15.00;;;8.73;;
3423;SDS011;72707;50.120;8.500;2023-10-19T00:15:33;14.80;;;8.53;;
3423;SDS011;72707;50.120;8.500;2023-10-19T00:18:02;12.03;;;8.23;;
3423;SDS011;72707;50.120;8.500;2023-10-19T00:20:46;13.27;;;9.30;;
3423;SDS011;72707;50.120;8.500;2023-10-19T01:10:17;9.17;;;6.60;;
3423;SDS011;72707;50.120;8.500;2023-10-19T01:12:46;8.67;;;6.27;;
3423;SDS011;72707;50.120;8.500;2023-10-19T01:15:13;8.63;;;6.23;;
3423;SDS011;72707;50.120;8.500;2023-10-19T01:17:49;7.47;;;6.00;;
3423;SDS011;72707;50.120;8.500;2023-10-19T01:20:22;8.13;;;5.67;;
3423;SDS011;72707;50.120;8.500;2023-10-19T01:25:51;8.20;;;6.10;;
3423;SDS011;72707;50.120;8.500;2023-10-19T01:28:22;8.50;;;6.03;;
3423;SDS011;72707;50.120;8.500;2023-10-19T01:30:53;8.23;;;5.63;;
3423;SDS011;72707;50.120;8.500;2023-10-19T01:33:20;7.03;;;5.30;;
3423;SDS011;72707;50.120;8.500;2023-10-19T01:35:46;7.13;;;5.53;;
3423;SDS011;72707;50.120;8.500;2023-10-19T01:38:31;8.93;;;5.73;;
3423;SDS011;72707;50.120;8.500;2023-10-19T01:41:00;7.70;;;5.50;;
3423;SDS011;72707;50.120;8.500;2023-10-19T01:43:26;9.07;;;6.27;;
3423;SDS011;72707;50.120;8.500;2023-10-19T01:45:58;6.97;;;5.83;;
3423;SDS011;72707;50.120;8.500;2023-10-19T01:48:30;6.70;;;5.43;;
3423;SDS011;72707;50.120;8.500;2023-10-19T01:51:02;7.00;;;5.60;;
3423;SDS011;72707;50.120;8.500;2023-10-19T01:53:32;5.93;;;5.20;;
3423;SDS011;72707;50.120;8.500;2023-10-19T01:55:59;6.77;;;5.23;;
3423;SDS011;72707;50.120;8.500;2023-10-19T01:58:25;8.67;;;5.93;;
3423;SDS011;72707;50.120;8.500;2023-10-19T02:00:51;7.43;;;5.57;;
3423;SDS011;72707;50.120;8.500;2023-10-19T02:03:20;8.73;;;6.23;;
3423;SDS011;72707;50.120;8.500;2023-10-19T02:05:59;6.90;;;5.40;;
3423;SDS011;72707;50.120;8.500;2023-10-19T02:08:25;7.47;;;5.00;;
3423;SDS011;72707;50.120;8.500;2023-10-19T02:10:52;7.23;;;4.93;;
3423;SDS011;72707;50.120;8.500;2023-10-19T02:13:19;7.90;;;5.10;;
3423;SDS011;72707;50.120;8.500;2023-10-19T02:15:44;6.43;;;4.83;;
3423;SDS011;72707;50.120;8.500;2023-10-19T02:18:11;5.63;;;5.00;;
3423;SDS011;72707;50.120;8.500;2023-10-19T02:20:37;6.30;;;5.40;;
3423;SDS011;72707;50.120;8.500;2023-10-19T02:23:07;6.17;;;5.40;;
3423;SDS011;72707;50.120;8.500;2023-10-19T02:25:33;6.77;;;5.10;;
3423;SDS011;72707;50.120;8.500;2023-10-19T02:28:03;6.10;;;4.60;;
3423;SDS011;72707;50.120;8.500;2023-10-19T02:30:31;5.57;;;4.90;;
3423;SDS011;72707;50.120;8.500;2023-10-19T02:32:58;6.90;;;5.47;;
3423;SDS011;72707;50.120;8.500;2023-10-19T02:35:25;8.07;;;5.43;;
3423;SDS011;72707;50.120;8.500;2023-10-19T02:37:52;6.27;;;5.30;;
3423;SDS011;72707;50.120;8.500;2023-10-19T02:40:18;9.60;;;6.57;;
3423;SDS011;72707;50.120;8.500;2023-10-19T02:42:45;8.07;;;6.13;;
3423;SDS011;72707;50.120;8.500;2023-10-19T02:45:20;9.40;;;6.20;;
3423;SDS011;72707;50.120;8.500;2023-10-19T02:47:45;8.97;;;5.70;;
3423;SDS011;72707;50.120;8.500;2023-10-19T02:50:11;7.40;;;5.50;;
3423;SDS011;72707;50.120;8.500;2023-10-19T02:52:41;6.07;;;5.13;;
3423;SDS011;72707;50.120;8.500;2023-10-19T02:55:08;7.13;;;5.30;;
3423;SDS011;72707;50.120;8.500;2023-10-19T02:57:35;7.17;;;5.57;;
3423;SDS011;72707;50.120;8.500;2023-10-19T03:00:04;7.03;;;5.40;;
3423;SDS011;72707;50.120;8.500;2023-10-19T03:02:36;6.97;;;5.60;;
3423;SDS011;72707;50.120;8.500;2023-10-19T03:05:02;8.33;;;5.50;;
3423;SDS011;72707;50.120;8.500;2023-10-19T03:07:37;7.53;;;5.63;;
3423;SDS011;72707;50.120;8.500;2023-10-19T03:10:04;6.57;;;4.93;;
3423;SDS011;72707;50.120;8.500;2023-10-19T03:12:30;8.83;;;5.87;;
3423;SDS011;72707;50.120;8.500;2023-10-19T03:14:57;8.17;;;6.73;;
3423;SDS011;72707;50.120;8.500;2023-10-19T03:17:25;7.30;;;5.20;;
3423;SDS011;72707;50.120;8.500;2023-10-19T03:19:51;9.37;;;6.30;;
3423;SDS011;72707;50.120;8.500;2023-10-19T03:22:17;7.83;;;5.47;;
3423;SDS011;72707;50.120;8.500;2023-10-19T03:24:44;7.20;;;5.47;;
3423;SDS011;72707;50.120;8.500;2023-10-19T03:27:11;7.40;;;6.07;;
3423;SDS011;72707;50.120;8.500;2023-10-19T03:29:38;5.80;;;5.13;;
3423;SDS011;72707;50.120;8.500;2023-10-19T03:32:04;7.23;;;5.50;;
3423;SDS011;72707;50.120;8.500;2023-10-19T03:34:34;9.83;;;6.47;;
3423;SDS011;72707;50.120;8.500;2023-10-19T03:37:00;9.40;;;6.80;;
3423;SDS011;72707;50.120;8.500;2023-10-19T03:39:37;9.10;;;6.60;;
3423;SDS011;72707;50.120;8.500;2023-10-19T03:42:03;11.97;;;7.90;;
3423;SDS011;72707;50.120;8.500;2023-10-19T03:44:31;11.60;;;7.47;;
3423;SDS011;72707;50.120;8.500;2023-10-19T03:47:08;8.23;;;6.70;;
3423;SDS011;72707;50.120;8.500;2023-10-19T03:49:37;15.43;;;8.90;;
3423;SDS011;72707;50.120;8.500;2023-10-19T03:52:04;12.03;;;8.30;;
3423;SDS011;72707;50.120;8.500;2023-10-19T03:54:35;20.77;;;9.40;;
3423;SDS011;72707;50.120;8.500;2023-10-19T03:57:07;19.27;;;9.90;;
3423;SDS011;72707;50.120;8.500;2023-10-19T03:59:41;15.80;;;8.50;;
3423;SDS011;72707;50.120;8.500;2023-10-19T04:02:07;23.67;;;10.80;;
3423;SDS011;72707;50.120;8.500;2023-10-19T04:04:41;26.03;;;10.07;;
3423;SDS011;72707;50.120;8.500;2023-10-19T04:07:13;29.43;;;12.67;;
3423;SDS011;72707;50.120;8.500;2023-10-19T04:09:46;22.97;;;11.53;;
3423;SDS011;72707;50.120;8.500;2023-10-19T04:12:37;23.60;;;11.70;;
3423;SDS011;72707;50.120;8.500;2023-10-19T04:15:07;28.33;;;12.67;;
3423;SDS011;72707;50.120;8.500;2023-10-19T04:17:41;31.93;;;13.17;;
3423;SDS011;72707;50.120;8.500;2023-10-19T04:20:08;29.13;;;12.83;;
3423;SDS011;72707;50.120;8.500;2023-10-19T04:22:47;34.33;;;12.70;;
3423;SDS011;72707;50.120;8.500;2023-10-19T04:25:15;23.03;;;10.33;;
3423;SDS011;72707;50.120;8.500;2023-10-19T04:27:41;16.00;;;8.97;;
3423;SDS011;72707;50.120;8.500;2023-10-19T04:30:11;19.70;;;9.00;;
3423;SDS011;72707;50.120;8.500;2023-10-19T04:32:44;20.90;;;10.87;;
3423;SDS011;72707;50.120;8.500;2023-10-19T04:35:11;18.77;;;9.47;;
3423;SDS011;72707;50.120;8.500;2023-10-19T04:37:39;16.13;;;8.60;;
3423;SDS011;72707;50.120;8.500;2023-10-19T04:40:08;20.47;;;9.33;;
3423;SDS011;72707;50.120;8.500;2023-10-19T04:42:34;16.60;;;8.70;;
3423;SDS011;72707;50.120;8.500;2023-10-19T04:45:01;18.77;;;9.83;;
3423;SDS011;72707;50.120;8.500;2023-10-19T04:47:27;16.63;;;9.27;;
3423;SDS011;72707;50.120;8.500;2023-10-19T04:49:53;19.77;;;9.33;;
3423;SDS011;72707;50.120;8.500;2023-10-19T04:52:18;16.10;;;9.37;;
3423;SDS011;72707;50.120;8.500;2023-10-19T04:54:44;16.13;;;8.73;;
3423;SDS011;72707;50.120;8.500;2023-10-19T04:57:10;23.47;;;11.53;;
3423;SDS011;72707;50.120;8.500;2023-10-19T04:59:36;17.43;;;9.37;;
3423;SDS011;72707;50.120;8.500;2023-10-19T05:02:01;18.03;;;7.87;;
3423;SDS011;72707;50.120;8.500;2023-10-19T05:04:27;16.27;;;8.90;;
3423;SDS011;72707;50.120;8.500;2023-10-19T05:06:55;14.23;;;8.40;;
3423;SDS011;72707;50.120;8.500;2023-10-19T05:09:21;24.17;;;10.07;;
3423;SDS011;72707;50.120;8.500;2023-10-19T05:11:46;18.67;;;9.67;;
3423;SDS011;72707;50.120;8.500;2023-10-19T05:14:13;30.30;;;11.87;;
3423;SDS011;72707;50.120;8.500;2023-10-19T05:16:39;27.77;;;11.43;;
3423;SDS011;72707;50.120;8.500;2023-10-19T05:19:05;28.33;;;11.27;;
3423;SDS011;72707;50.120;8.500;2023-10-19T05:21:31;29.70;;;12.23;;
3423;SDS011;72707;50.120;8.500;2023-10-19T05:23:56;29.73;;;12.27;;
3423;SDS011;72707;50.120;8.500;2023-10-19T05:26:25;36.97;;;13.73;;
3423;SDS011;72707;50.120;8.500;2023-10-19T05:28:51;40.23;;;14.17;;
3423;SDS011;72707;50.120;8.500;2023-10-19T05:31:16;34.93;;;13.73;;
3423;SDS011;72707;50.120;8.500;2023-10-19T05:33:42;29.60;;;11.80;;
3423;SDS011;72707;50.120;8.500;2023-10-19T05:36:08;34.03;;;12.10;;
3423;SDS011;72707;50.120;8.500;2023-10-19T05:38:34;23.93;;;11.57;;
3423;SDS011;72707;50.120;8.500;2023-10-19T05:40:59;41.23;;;12.33;;
3423;SDS011;72707;50.120;8.500;2023-10-19T05:43:25;36.47;;;11.93;;
3423;SDS011;72707;50.120;8.500;2023-10-19T05:45:51;33.80;;;11.80;;
3423;SDS011;72707;50.120;8.500;2023-10-19T05:48:16;35.40;;;12.87;;
3423;SDS011;72707;50.120;8.500;2023-10-19T05:50:42;39.87;;;13.63;;
3423;SDS011;72707;50.120;8.500;2023-10-19T05:53:08;53.53;;;15.23;;
3423;SDS011;72707;50.120;8.500;2023-10-19T05:55:34;47.70;;;14.87;;
3423;SDS011;72707;50.120;8.500;2023-10-19T05:58:01;39.67;;;13.33;;
3423;SDS011;72707;50.120;8.500;2023-10-19T06:00:29;41.60;;;15.10;;
3423;SDS011;72707;50.120;8.500;2023-10-19T06:02:55;49.00;;;15.53;;
3423;SDS011;72707;50.120;8.500;2023-10-19T06:05:22;40.37;;;14.43;;
3423;SDS011;72707;50.120;8.500;2023-10-19T06:07:49;61.33;;;16.10;;
3423;SDS011;72707;50.120;8.500;2023-10-19T06:10:19;47.60;;;17.07;;
3423;SDS011;72707;50.120;8.500;2023-10-19T06:12:49;50.47;;;17.40;;
3423;SDS011;72707;50.120;8.500;2023-10-19T06:15:16;46.93;;;16.50;;
3423;SDS011;72707;50.120;8.500;2023-10-19T06:17:43;45.53;;;17.17;;
3423;SDS011;72707;50.120;8.500;2023-10-19T06:20:10;47.60;;;15.30;;
3423;SDS011;72707;50.120;8.500;2023-10-19T06:22:57;61.90;;;17.10;;
3423;SDS011;72707;50.120;8.500;2023-10-19T06:25:29;62.20;;;19.10;;
3423;SDS011;72707;50.120;8.500;2023-10-19T06:27:55;54.23;;;19.83;;
3423;SDS011;72707;50.120;8.500;2023-10-19T06:30:22;60.27;;;18.73;;
3423;SDS011;72707;50.120;8.500;2023-10-19T06:32:52;60.80;;;20.67;;
3423;SDS011;72707;50.120;8.500;2023-10-19T06:35:20;53.93;;;18.60;;
3423;SDS011;72707;50.120;8.500;2023-10-19T06:37:46;51.13;;;17.53;;
3423;SDS011;72707;50.120;8.500;2023-10-19T06:40:13;52.03;;;17.30;;
3423;SDS011;72707;50.120;8.500;2023-10-19T06:42:43;56.60;;;19.03;;
3423;SDS011;72707;50.120;8.500;2023-10-19T06:45:10;54.50;;;20.00;;
3423;SDS011;72707;50.120;8.500;2023-10-19T06:47:39;58.40;;;20.07;;
3423;SDS011;72707;50.120;8.500;2023-10-19T06:50:06;57.17;;;18.97;;
3423;SDS011;72707;50.120;8.500;2023-10-19T06:52:34;92.03;;;22.97;;
3423;SDS011;72707;50.120;8.500;2023-10-19T06:55:04;81.40;;;23.23;;
3423;SDS011;72707;50.120;8.500;2023-10-19T06:57:31;56.80;;;20.47;;
3423;SDS011;72707;50.120;8.500;2023-10-19T06:59:59;57.00;;;19.60;;
3423;SDS011;72707;50.120;8.500;2023-10-19T07:02:35;55.20;;;19.53;;
3423;SDS011;72707;50.120;8.500;2023-10-19T07:41:17;67.33;;;21.67;;
3423;SDS011;72707;50.120;8.500;2023-10-19T07:43:42;55.83;;;20.60;;
3423;SDS011;72707;50.120;8.500;2023-10-19T07:46:11;68.30;;;22.47;;
3423;SDS011;72707;50.120;8.500;2023-10-19T07:48:37;68.37;;;21.63;;
3423;SDS011;72707;50.120;8.500;2023-10-19T07:51:03;61.10;;;20.93;;
3423;SDS011;72707;50.120;8.500;2023-10-19T07:53:29;62.57;;;22.17;;
3423;SDS011;72707;50.120;8.500;2023-10-19T07:55:55;72.53;;;23.77;;
3423;SDS011;72707;50.120;8.500;2023-10-19T07:58:22;72.13;;;23.87;;
3423;SDS011;72707;50.120;8.500;2023-10-19T09:10:47;76.23;;;37.57;;
3423;SDS011;72707;50.120;8.500;2023-10-19T09:36:31;54.43;;;22.10;;
3423;SDS011;72707;50.120;8.500;2023-10-19T09:38:57;57.87;;;21.43;;
3423;SDS011;72707;50.120;8.500;2023-10-19T09:41:23;62.97;;;26.83;;
3423;SDS011;72707;50.120;8.500;2023-10-19T09:43:57;46.43;;;21.63;;
3423;SDS011;72707;50.120;8.500;2023-10-19T09:46:31;56.97;;;21.47;;
3423;SDS011;72707;50.120;8.500;2023-10-19T09:48:57;47.93;;;21.80;;
3423;SDS011;72707;50.120;8.500;2023-10-19T09:51:23;45.93;;;21.13;;
3423;SDS011;72707;50.120;8.500;2023-10-19T09:53:57;53.13;;;22.63;;
3423;SDS011;72707;50.120;8.500;2023-10-19T09:56:33;55.23;;;21.33;;
3423;SDS011;72707;50.120;8.500;2023-10-19T09:59:11;42.33;;;20.97;;
3423;SDS011;72707;50.120;8.500;2023-10-19T10:04:39;50.90;;;21.87;;
3423;SDS011;72707;50.120;8.500;2023-10-19T10:07:06;48.27;;;23.63;;
3423;SDS011;72707;50.120;8.500;2023-10-19T10:09:34;53.93;;;25.00;;
3423;SDS011;72707;50.120;8.500;2023-10-19T10:12:16;51.03;;;23.57;;
3423;SDS011;72707;50.120;8.500;2023-10-19T10:17:23;53.20;;;22.93;;
3423;SDS011;72707;50.120;8.500;2023-10-19T10:19:53;45.37;;;22.67;;
3423;SDS011;72707;50.120;8.500;2023-10-19T10:22:21;57.67;;;22.30;;
3423;SDS011;72707;50.120;8.500;2023-10-19T10:58:28;39.57;;;21.40;;
3423;SDS011;72707;50.120;8.500;2023-10-19T11:34:39;63.00;;;23.23;;
3423;SDS011;72707;50.120;8.500;2023-10-19T11:37:05;33.30;;;18.97;;
3423;SDS011;72707;50.120;8.500;2023-10-19T11:39:31;31.63;;;17.70;;
3423;SDS011;72707;50.120;8.500;2023-10-19T11:41:57;32.00;;;17.73;;
3423;SDS011;72707;50.120;8.500;2023-10-19T11:44:22;38.63;;;19.80;;
3423;SDS011;72707;50.120;8.500;2023-10-19T11:46:48;39.63;;;20.80;;
3423;SDS011;72707;50.120;8.500;2023-10-19T11:49:13;38.80;;;19.47;;
3423;SDS011;72707;50.120;8.500;2023-10-19T11:51:39;33.13;;;19.23;;
3423;SDS011;72707;50.120;8.500;2023-10-19T11:54:04;33.47;;;19.43;;
3423;SDS011;72707;50.120;8.500;2023-10-19T11:56:31;30.47;;;18.80;;
3423;SDS011;72707;50.120;8.500;2023-10-19T11:58:57;32.83;;;18.80;;
3423;SDS011;72707;50.120;8.500;2023-10-19T12:01:22;32.13;;;17.30;;
3423;SDS011;72707;50.120;8.500;2023-10-19T12:03:50;29.57;;;17.17;;
3423;SDS011;72707;50.120;8.500;2023-10-19T12:06:16;33.10;;;18.80;;
3423;SDS011;72707;50.120;8.500;2023-10-19T12:08:46;34.73;;;17.90;;
3423;SDS011;72707;50.120;8.500;2023-10-19T12:11:12;29.03;;;16.47;;
3423;SDS011;72707;50.120;8.500;2023-10-19T12:13:42;29.23;;;17.50;;
3423;SDS011;72707;50.120;8.500;2023-10-19T12:16:12;27.03;;;16.50;;
3423;SDS011;72707;50.120;8.500;2023-10-19T12:18:38;26.83;;;15.97;;
3423;SDS011;72707;50.120;8.500;2023-10-19T12:21:04;26.90;;;16.00;;
3423;SDS011;72707;50.120;8.500;2023-10-19T12:23:33;29.37;;;17.10;;
3423;SDS011;72707;50.120;8.500;2023-10-19T12:25:58;25.37;;;14.77;;
3423;SDS011;72707;50.120;8.500;2023-10-19T12:28:28;26.97;;;15.93;;
3423;SDS011;72707;50.120;8.500;2023-10-19T12:30:53;25.40;;;14.63;;
3423;SDS011;72707;50.120;8.500;2023-10-19T12:33:21;25.00;;;14.93;;
3423;SDS011;72707;50.120;8.500;2023-10-19T12:35:47;20.37;;;13.63;;
3423;SDS011;72707;50.120;8.500;2023-10-19T12:38:22;21.70;;;14.63;;
3423;SDS011;72707;50.120;8.500;2023-10-19T12:40:49;20.20;;;13.20;;
3423;SDS011;72707;50.120;8.500;2023-10-19T12:43:16;21.23;;;12.93;;
3423;SDS011;72707;50.120;8.500;2023-10-19T12:45:44;23.63;;;14.80;;
3423;SDS011;72707;50.120;8.500;2023-10-19T12:48:15;19.93;;;12.90;;
3423;SDS011;72707;50.120;8.500;2023-10-19T12:50:41;18.90;;;12.87;;
3423;SDS011;72707;50.120;8.500;2023-10-19T12:53:07;17.77;;;12.43;;
3423;SDS011;72707;50.120;8.500;2023-10-19T12:55:33;18.53;;;12.60;;
3423;SDS011;72707;50.120;8.500;2023-10-19T12:58:02;20.57;;;12.93;;
3423;SDS011;72707;50.120;8.500;2023-10-19T13:00:36;20.87;;;13.57;;
3423;SDS011;72707;50.120;8.500;2023-10-19T13:03:07;20.20;;;13.30;;
3423;SDS011;72707;50.120;8.500;2023-10-19T13:15:56;68.60;;;19.37;;
3423;SDS011;72707;50.120;8.500;2023-10-19T13:26:09;18.87;;;13.17;;
3423;SDS011;72707;50.120;8.500;2023-10-19T13:28:42;20.10;;;13.03;;
3423;SDS011;72707;50.120;8.500;2023-10-19T13:49:11;88.10;;;20.53;;
3423;SDS011;72707;50.120;8.500;2023-10-19T13:56:51;25.73;;;17.07;;
3423;SDS011;72707;50.120;8.500;2023-10-19T13:59:17;25.40;;;15.30;;
3423;SDS011;72707;50.120;8.500;2023-10-19T14:01:43;29.27;;;17.93;;
3423;SDS011;72707;50.120;8.500;2023-10-19T14:04:08;29.20;;;20.20;;
3423;SDS011;72707;50.120;8.500;2023-10-19T14:06:34;39.80;;;24.83;;
3423;SDS011;72707;50.120;8.500;2023-10-19T14:09:00;47.67;;;30.87;;
3423;SDS011;72707;50.120;8.500;2023-10-19T14:11:26;35.17;;;22.33;;
3423;SDS011;72707;50.120;8.500;2023-10-19T14:13:52;31.07;;;19.87;;
3423;SDS011;72707;50.120;8.500;2023-10-19T14:16:17;28.43;;;17.10;;
3423;SDS011;72707;50.120;8.500;2023-10-19T14:23:51;77.40;;;21.57;;
3423;SDS011;72707;50.120;8.500;2023-10-19T14:26:18;27.47;;;17.37;;
3423;SDS011;72707;50.120;8.500;2023-10-19T14:28:43;27.53;;;16.23;;
3423;SDS011;72707;50.120;8.500;2023-10-19T14:36:19;22.83;;;15.50;;
3423;SDS011;72707;50.120;8.500;2023-10-19T14:38:45;23.23;;;14.47;;
3423;SDS011;72707;50.120;8.500;2023-10-19T14:41:11;26.23;;;16.00;;
3423;SDS011;72707;50.120;8.500;2023-10-19T14:43:36;23.10;;;14.87;;
3423;SDS011;72707;50.120;8.500;2023-10-19T14:46:04;39.10;;;23.27;;
3423;SDS011;72707;50.120;8.500;2023-10-19T14:48:31;28.63;;;18.77;;
3423;SDS011;72707;50.120;8.500;2023-10-19T14:50:57;23.87;;;15.63;;
3423;SDS011;72707;50.120;8.500;2023-10-19T14:53:22;23.67;;;15.37;;
3423;SDS011;72707;50.120;8.500;2023-10-19T14:55:49;28.00;;;16.27;;
3423;SDS011;72707;50.120;8.500;2023-10-19T14:58:15;29.80;;;16.93;;
3423;SDS011;72707;50.120;8.500;2023-10-19T15:00:41;24.23;;;16.13;;
3423;SDS011;72707;50.120;8.500;2023-10-19T15:03:07;27.07;;;17.03;;
3423;SDS011;72707;50.120;8.500;2023-10-19T15:05:33;24.93;;;16.00;;
3423;SDS011;72707;50.120;8.500;2023-10-19T15:08:02;27.10;;;16.93;;
3423;SDS011;72707;50.120;8.500;2023-10-19T15:10:34;45.37;;;36.53;;
3423;SDS011;72707;50.120;8.500;2023-10-19T15:13:04;24.03;;;14.80;;
3423;SDS011;72707;50.120;8.500;2023-10-19T15:15:30;24.17;;;14.97;;
3423;SDS011;72707;50.120;8.500;2023-10-19T15:17:56;26.70;;;16.03;;
3423;SDS011;72707;50.120;8.500;2023-10-19T15:20:26;25.23;;;16.20;;
3423;SDS011;72707;50.120;8.500;2023-10-19T15:22:52;26.90;;;14.73;;
3423;SDS011;72707;50.120;8.500;2023-10-19T15:25:21;20.33;;;13.77;;
3423;SDS011;72707;50.120;8.500;2023-10-19T15:27:49;24.20;;;14.03;;
3423;SDS011;72707;50.120;8.500;2023-10-19T15:30:16;23.33;;;14.53;;
3423;SDS011;72707;50.120;8.500;2023-10-19T15:32:43;23.43;;;13.57;;
3423;SDS011;72707;50.120;8.500;2023-10-19T15:35:09;22.13;;;15.43;;
3423;SDS011;72707;50.120;8.500;2023-10-19T15:37:40;26.97;;;14.83;;
3423;SDS011;72707;50.120;8.500;2023-10-19T15:40:07;27.63;;;16.67;;
3423;SDS011;72707;50.120;8.500;2023-10-19T15:42:37;29.00;;;15.83;;
3423;SDS011;72707;50.120;8.500;2023-10-19T15:45:16;24.43;;;14.80;;
3423;SDS011;72707;50.120;8.500;2023-10-19T15:47:44;28.03;;;15.10;;
3423;SDS011;72707;50.120;8.500;2023-10-19T15:50:11;27.77;;;16.20;;
3423;SDS011;72707;50.120;8.500;2023-10-19T15:52:37;27.33;;;16.50;;
3423;SDS011;72707;50.120;8.500;2023-10-19T15:55:10;30.87;;;15.13;;
3423;SDS011;72707;50.120;8.500;2023-10-19T16:00:09;26.03;;;15.77;;
3423;SDS011;72707;50.120;8.500;2023-10-19T16:02:38;25.13;;;14.50;;
3423;SDS011;72707;50.120;8.500;2023-10-19T16:05:04;29.07;;;15.07;;
3423;SDS011;72707;50.120;8.500;2023-10-19T16:07:30;31.37;;;15.27;;
3423;SDS011;72707;50.120;8.500;2023-10-19T16:09:56;24.43;;;14.00;;
3423;SDS011;72707;50.120;8.500;2023-10-19T16:12:22;24.27;;;13.90;;
3423;SDS011;72707;50.120;8.500;2023-10-19T16:14:48;22.53;;;15.17;;
3423;SDS011;72707;50.120;8.500;2023-10-19T16:17:13;18.77;;;12.93;;
3423;SDS011;72707;50.120;8.500;2023-10-19T16:19:41;22.13;;;14.40;;
3423;SDS011;72707;50.120;8.500;2023-10-19T16:22:07;25.73;;;14.60;;
3423;SDS011;72707;50.120;8.500;2023-10-19T16:24:33;22.93;;;13.47;;
3423;SDS011;72707;50.120;8.500;2023-10-19T16:26:59;23.90;;;14.23;;
3423;SDS011;72707;50.120;8.500;2023-10-19T16:29:25;22.40;;;14.20;;
3423;SDS011;72707;50.120;8.500;2023-10-19T16:31:51;24.83;;;14.30;;
3423;SDS011;72707;50.120;8.500;2023-10-19T16:34:20;25.37;;;14.60;;
3423;SDS011;72707;50.120;8.500;2023-10-19T16:36:45;31.17;;;18.90;;
3423;SDS011;72707;50.120;8.500;2023-10-19T16:39:11;34.30;;;18.60;;
3423;SDS011;72707;50.120;8.500;2023-10-19T16:41:41;34.63;;;20.67;;
3423;SDS011;72707;50.120;8.500;2023-10-19T16:44:07;38.73;;;22.03;;
3423;SDS011;72707;50.120;8.500;2023-10-19T16:46:32;31.07;;;18.10;;
3423;SDS011;72707;50.120;8.500;2023-10-19T16:48:58;32.57;;;16.70;;
3423;SDS011;72707;50.120;8.500;2023-10-19T16:51:24;28.87;;;17.27;;
3423;SDS011;72707;50.120;8.500;2023-10-19T16:53:50;28.27;;;16.30;;
3423;SDS011;72707;50.120;8.500;2023-10-19T16:56:16;28.97;;;16.23;;
3423;SDS011;72707;50.120;8.500;2023-10-19T16:58:42;29.33;;;16.63;;
3423;SDS011;72707;50.120;8.500;2023-10-19T17:01:08;26.57;;;16.80;;
3423;SDS011;72707;50.120;8.500;2023-10-19T17:03:37;27.63;;;17.77;;
3423;SDS011;72707;50.120;8.500;2023-10-19T17:06:03;29.03;;;19.40;;
3423;SDS011;72707;50.120;8.500;2023-10-19T17:08:29;36.17;;;20.77;;
3423;SDS011;72707;50.120;8.500;2023-10-19T17:10:55;34.23;;;20.90;;
3423;SDS011;72707;50.120;8.500;2023-10-19T17:13:23;31.60;;;19.93;;
3423;SDS011;72707;50.120;8.500;2023-10-19T17:15:51;32.80;;;20.53;;
3423;SDS011;72707;50.120;8.500;2023-10-19T17:18:16;30.43;;;18.77;;
3423;SDS011;72707;50.120;8.500;2023-10-19T17:20:42;31.87;;;17.20;;
3423;SDS011;72707;50.120;8.500;2023-10-19T17:23:07;26.23;;;15.83;;
3423;SDS011;72707;50.120;8.500;2023-10-19T17:25:33;27.60;;;15.87;;
3423;SDS011;72707;50.120;8.500;2023-10-19T17:30:36;24.27;;;14.73;;
3423;SDS011;72707;50.120;8.500;2023-10-19T17:35:37;26.20;;;14.77;;
3423;SDS011;72707;50.120;8.500;2023-10-19T17:38:03;63.47;;;19.43;;
3423;SDS011;72707;50.120;8.500;2023-10-19T17:40:30;26.10;;;15.93;;
3423;SDS011;72707;50.120;8.500;2023-10-19T17:42:55;24.80;;;14.13;;
3423;SDS011;72707;50.120;8.500;2023-10-19T17:45:21;27.33;;;14.73;;
3423;SDS011;72707;50.120;8.500;2023-10-19T17:47:46;25.67;;;13.60;;
3423;SDS011;72707;50.120;8.500;2023-10-19T17:50:12;26.83;;;14.90;;
3423;SDS011;72707;50.120;8.500;2023-10-19T18:08:10;20.33;;;12.87;;
3423;SDS011;72707;50.120;8.500;2023-10-19T18:10:36;24.73;;;15.13;;
3423;SDS011;72707;50.120;8.500;2023-10-19T18:13:01;24.27;;;13.77;;
3423;SDS011;72707;50.120;8.500;2023-10-19T18:15:29;18.43;;;12.60;;
3423;SDS011;72707;50.120;8.500;2023-10-19T18:28:19;21.20;;;13.43;;
3423;SDS011;72707;50.120;8.500;2023-10-19T18:30:53;29.17;;;19.10;;
3423;SDS011;72707;50.120;8.500;2023-10-19T19:04:31;21.93;;;13.10;;
3423;SDS011;72707;50.120;8.500;2023-10-19T19:35:28;54.17;;;16.70;;
3423;SDS011;72707;50.120;8.500;2023-10-19T19:37:58;19.23;;;12.27;;
3423;SDS011;72707;50.120;8.500;2023-10-19T19:43:00;19.90;;;11.90;;
3423;SDS011;72707;50.120;8.500;2023-10-19T19:45:26;22.93;;;12.57;;
3423;SDS011;72707;50.120;8.500;2023-10-19T22:47:59;17.80;;;10.73;;
3423;SDS011;72707;50.120;8.500;2023-10-19T22:50:27;16.30;;;10.07;;
3423;SDS011;72707;50.120;8.500;2023-10-19T22:52:53;15.93;;;10.37;;
3423;SDS011;72707;50.120;8.500;2023-10-19T22:55:18;16.07;;;9.97;;
3423;SDS011;72707;50.120;8.500;2023-10-19T22:57:44;13.73;;;9.50;;
3423;SDS011;72707;50.120;8.500;2023-10-19T23:00:15;13.93;;;10.40;;
3423;SDS011;72707;50.120;8.500;2023-10-19T23:02:42;16.70;;;9.60;;
3423;SDS011;72707;50.120;8.500;2023-10-19T23:05:11;16.73;;;10.00;;
3423;SDS011;72707;50.120;8.500;2023-10-19T23:07:38;16.33;;;10.30;;
3423;SDS011;72707;50.120;8.500;2023-10-19T23:10:04;15.00;;;10.23;;
3423;SDS011;72707;50.120;8.500;2023-10-19T23:12:36;17.23;;;11.33;;
3423;SDS011;72707;50.120;8.500;2023-10-19T23:15:03;14.00;;;10.97;;
